createdAt,value
2022-08-09T00:01:10.483Z,2.38
2022-08-09T00:04:03.730Z,6.22
2022-08-09T00:06:27.740Z,3.10
2022-08-09T00:08:57.267Z,3.70
2022-08-09T00:11:27.662Z,3.42
2022-08-09T00:14:11.384Z,3.65
2022-08-09T00:16:44.280Z,5.55
2022-08-09T00:19:11.296Z,2.97
2022-08-09T00:21:55.502Z,3.20
2022-08-09T00:24:23.645Z,5.90
2022-08-09T00:26:51.107Z,3.97
2022-08-09T00:30:09.928Z,2.47
2022-08-09T00:32:05.762Z,8.13
2022-08-09T00:34:33.439Z,5.30
2022-08-09T00:37:00.758Z,3.78
2022-08-09T00:40:12.004Z,3.15
2022-08-09T00:44:13.222Z,3.60
2022-08-09T00:45:14.753Z,3.65
2022-08-09T00:47:42.433Z,7.17
2022-08-09T00:50:14.204Z,6.05
2022-08-09T00:52:41.878Z,4.90
2022-08-09T00:55:09.095Z,3.85
2022-08-09T00:57:43.551Z,3.42
2022-08-09T01:00:20.527Z,3.93
2022-08-09T01:02:53.067Z,3.88
2022-08-09T01:05:53.465Z,3.35
2022-08-09T01:08:49.722Z,6.07
2022-08-09T01:11:39.745Z,4.63
2022-08-09T01:14:15.535Z,4.13
2022-08-09T01:16:47.326Z,3.47
2022-08-09T01:19:43.108Z,5.50
2022-08-09T01:22:46.362Z,3.38
2022-08-09T01:25:41.747Z,3.10
2022-08-09T01:28:09.987Z,4.07
2022-08-09T01:30:52.433Z,2.95
2022-08-09T01:33:23.962Z,5.45
2022-08-09T01:35:57.896Z,4.05
2022-08-09T01:38:30.070Z,4.45
2022-08-09T01:41:03.073Z,3.57
2022-08-09T01:43:51.218Z,5.07
2022-08-09T01:46:25.305Z,2.83
2022-08-09T01:48:57.210Z,5.38
2022-08-09T01:51:28.126Z,3.17
2022-08-09T01:54:01.327Z,4.70
2022-08-09T01:56:30.819Z,3.53
2022-08-09T01:59:01.935Z,4.20
2022-08-09T02:01:58.047Z,7.95
2022-08-09T02:04:20.204Z,6.00
2022-08-09T02:07:08.349Z,5.03
2022-08-09T02:09:59.190Z,5.55
2022-08-09T02:12:28.811Z,4.97
2022-08-09T02:14:59.612Z,5.40
2022-08-09T02:18:00.944Z,5.78
2022-08-09T02:20:26.448Z,5.17
2022-08-09T02:23:11.644Z,4.20
2022-08-09T02:25:42.680Z,4.82
2022-08-09T02:28:37.679Z,5.97
2022-08-09T02:31:08.762Z,6.03
2022-08-09T02:34:06.710Z,3.90
2022-08-09T02:36:33.978Z,3.72
2022-08-09T02:39:07.384Z,5.15
2022-08-09T02:41:53.665Z,4.40
2022-08-09T02:44:30.057Z,3.72
2022-08-09T02:46:58.571Z,5.37
2022-08-09T02:49:38.720Z,5.95
2022-08-09T02:52:12.879Z,4.32
2022-08-09T02:54:54.318Z,3.97
2022-08-09T02:57:25.584Z,4.00
2022-08-09T03:00:21.357Z,6.43
2022-08-09T03:02:59.810Z,4.43
2022-08-09T03:05:28.504Z,4.30
2022-08-09T03:07:56.193Z,5.35
2022-08-09T03:10:25.489Z,6.90
2022-08-09T03:12:54.747Z,4.70
2022-08-09T03:15:23.494Z,4.50
2022-08-09T03:17:54.022Z,5.57
2022-08-09T03:20:29.691Z,4.57
2022-08-09T03:23:10.531Z,3.80
2022-08-09T03:25:56.904Z,4.23
2022-08-09T03:28:30.506Z,6.03
2022-08-09T03:30:58.864Z,5.63
2022-08-09T03:33:54.964Z,3.88
2022-08-09T03:36:16.734Z,4.43
2022-08-09T03:38:44.558Z,7.23
2022-08-09T03:41:14.856Z,4.35
2022-08-09T03:43:43.314Z,11.00
2022-08-09T03:46:30.400Z,5.25
2022-08-09T03:49:04.276Z,4.07
2022-08-09T03:51:55.695Z,7.10
2022-08-09T03:54:30.947Z,3.67
2022-08-09T03:57:00.955Z,5.07
2022-08-09T03:59:43.086Z,3.85
2022-08-09T04:02:25.396Z,4.25
2022-08-09T04:04:55.513Z,4.07
2022-08-09T04:07:22.555Z,3.70
2022-08-09T04:10:09.340Z,3.97
2022-08-09T04:12:51.777Z,3.97
2022-08-09T04:15:38.785Z,4.03
2022-08-09T04:18:17.883Z,5.73
2022-08-09T04:20:46.291Z,5.07
2022-08-09T04:23:17.399Z,4.47
2022-08-09T04:25:51.641Z,3.80
2022-08-09T04:28:34.053Z,7.78
2022-08-09T04:31:05.854Z,6.70
2022-08-09T04:33:52.406Z,5.40
2022-08-09T04:36:28.294Z,4.95
2022-08-09T04:38:57.024Z,7.50
2022-08-09T04:41:24.518Z,5.07
2022-08-09T04:44:06.557Z,6.07
2022-08-09T04:46:38.036Z,6.57
2022-08-09T04:49:22.302Z,5.00
2022-08-09T04:52:07.576Z,5.72
2022-08-09T04:54:36.464Z,3.80
2022-08-09T04:57:03.768Z,7.43
2022-08-09T04:59:33.745Z,4.22
2022-08-09T05:02:02.996Z,5.43
2022-08-09T05:04:31.014Z,5.28
2022-08-09T05:06:58.469Z,5.28
2022-08-09T05:09:25.428Z,8.23
2022-08-09T05:12:09.680Z,4.60
2022-08-09T05:14:37.784Z,5.97
2022-08-09T05:18:36.690Z,5.88
2022-08-09T05:19:58.066Z,4.70
2022-08-09T05:22:33.464Z,4.83
2022-08-09T05:25:12.112Z,7.57
2022-08-09T05:27:46.680Z,7.00
2022-08-09T05:30:16.017Z,9.05
2022-08-09T05:32:45.305Z,5.05
2022-08-09T05:35:17.865Z,5.60
2022-08-09T05:37:48.000Z,6.53
2022-08-09T05:40:17.131Z,7.03
2022-08-09T05:42:45.092Z,4.32
2022-08-09T05:45:14.251Z,11.15
2022-08-09T05:47:50.837Z,5.97
2022-08-09T05:50:32.270Z,6.47
2022-08-09T05:53:05.353Z,7.13
2022-08-09T05:55:38.258Z,4.25
2022-08-09T05:58:07.212Z,5.47
2022-08-09T06:00:34.050Z,6.10
2022-08-09T06:03:02.749Z,4.43
2022-08-09T06:05:57.713Z,7.20
2022-08-09T06:08:24.738Z,4.53
2022-08-09T06:10:53.847Z,7.95
2022-08-09T06:13:21.009Z,3.87
2022-08-09T06:15:51.389Z,3.45
2022-08-09T06:18:18.628Z,4.63
2022-08-09T06:20:54.234Z,4.07
2022-08-09T06:23:24.403Z,5.03
2022-08-09T06:26:10.962Z,4.13
2022-08-09T06:28:37.522Z,4.78
2022-08-09T06:31:04.251Z,4.28
2022-08-09T06:33:41.454Z,3.65
2022-08-09T06:36:13.620Z,4.28
2022-08-09T06:38:47.251Z,6.00
2022-08-09T06:41:18.757Z,4.82
2022-08-09T06:43:47.127Z,6.72
2022-08-09T06:46:40.147Z,6.30
2022-08-09T06:49:01.120Z,2.78
2022-08-09T06:51:28.525Z,3.63
2022-08-09T06:53:55.736Z,3.58
2022-08-09T06:56:30.894Z,3.88
2022-08-09T07:00:55.799Z,3.20
2022-08-09T07:01:54.298Z,4.75
2022-08-09T07:04:24.972Z,3.80
2022-08-09T07:07:00.650Z,3.25
2022-08-09T07:09:55.092Z,3.92
2022-08-09T07:12:18.065Z,4.03
2022-08-09T07:14:50.752Z,4.72
2022-08-09T07:17:17.707Z,6.30
2022-08-09T07:19:44.426Z,2.58
2022-08-09T07:22:14.869Z,5.95
2022-08-09T07:24:44.409Z,3.20
2022-08-09T07:27:33.044Z,4.57
2022-08-09T07:30:02.714Z,6.77
2022-08-09T07:32:33.528Z,4.47
2022-08-09T07:35:07.997Z,3.72
2022-08-09T07:37:42.966Z,3.75
2022-08-09T07:40:13.373Z,5.20
2022-08-09T07:42:59.841Z,4.67
2022-08-09T07:45:39.787Z,3.45
2022-08-09T07:48:28.651Z,4.38
2022-08-09T07:51:09.528Z,3.67
2022-08-09T07:54:05.430Z,4.13
2022-08-09T07:56:33.899Z,2.87
2022-08-09T07:59:01.853Z,3.47
2022-08-09T08:01:33.010Z,5.43
2022-08-09T08:04:02.468Z,3.90
2022-08-09T08:06:31.787Z,2.10
2022-08-09T08:09:04.522Z,2.47
2022-08-09T08:12:27.247Z,2.25
2022-08-09T08:14:18.684Z,1.80
2022-08-09T08:16:51.149Z,1.70
2022-08-09T08:19:31.860Z,2.97
2022-08-09T08:21:58.607Z,2.93
2022-08-09T08:24:25.308Z,3.63
2022-08-09T08:27:02.010Z,1.25
2022-08-09T08:29:28.719Z,2.22
2022-08-09T08:32:06.588Z,6.30
2022-08-09T08:34:34.708Z,1.50
2022-08-09T08:37:03.006Z,1.77
2022-08-09T08:39:39.820Z,3.63
2022-08-09T08:42:11.195Z,2.17
2022-08-09T08:44:38.021Z,3.85
2022-08-09T08:47:12.806Z,3.40
2022-08-09T08:49:47.940Z,1.83
2022-08-09T08:55:15.387Z,1.50
2022-08-09T08:57:57.442Z,6.20
2022-08-09T09:00:27.526Z,1.43
2022-08-09T09:03:08.212Z,1.92
2022-08-09T09:05:59.695Z,0.90
2022-08-09T09:08:29.709Z,1.42
2022-08-09T09:10:58.368Z,1.33
2022-08-09T09:13:24.910Z,2.80
2022-08-09T09:16:09.456Z,1.63
2022-08-09T09:18:36.324Z,1.30
2022-08-09T09:21:06.336Z,1.10
2022-08-09T09:23:49.720Z,1.05
2022-08-09T09:26:25.960Z,1.20
2022-08-09T09:29:04.525Z,3.15
2022-08-09T09:32:05.824Z,1.08
2022-08-09T09:34:25.513Z,1.35
2022-08-09T09:36:57.312Z,1.60
2022-08-09T09:39:42.774Z,0.80
2022-08-09T09:42:26.253Z,2.13
2022-08-09T09:45:08.315Z,2.03
2022-08-09T09:47:47.786Z,0.90
2022-08-09T09:50:39.614Z,1.48
2022-08-09T09:53:21.025Z,2.37
2022-08-09T09:55:57.739Z,1.60
2022-08-09T09:58:49.078Z,1.25
2022-08-09T10:01:31.085Z,1.95
2022-08-09T10:04:15.801Z,1.67
2022-08-09T10:06:46.961Z,2.10
2022-08-09T10:09:23.272Z,1.10
2022-08-09T10:12:14.733Z,0.95
2022-08-09T10:14:49.362Z,2.53
2022-08-09T10:17:50.488Z,1.33
2022-08-09T10:20:27.723Z,1.63
2022-08-09T10:23:17.167Z,3.47
2022-08-09T10:26:06.998Z,1.52
2022-08-09T10:28:33.914Z,2.15
2022-08-09T10:34:09.992Z,3.70
2022-08-09T10:36:35.982Z,1.00
2022-08-09T10:39:13.897Z,1.35
2022-08-09T10:41:43.018Z,1.40
2022-08-09T10:44:10.245Z,0.98
2022-08-09T10:47:20.472Z,1.40
2022-08-09T10:50:15.134Z,1.10
2022-08-09T10:53:23.051Z,2.00
2022-08-09T10:55:58.252Z,1.13
2022-08-09T10:58:37.390Z,1.38
2022-08-09T11:03:02.714Z,7.40
2022-08-09T11:04:09.337Z,1.60
2022-08-09T11:06:59.985Z,1.20
2022-08-09T11:09:41.362Z,0.98
2022-08-09T11:12:14.095Z,2.95
2022-08-09T11:14:57.353Z,0.70
2022-08-09T11:17:26.641Z,2.00
2022-08-09T11:20:18.023Z,1.95
2022-08-09T11:22:55.440Z,3.92
2022-08-09T11:25:44.498Z,0.85
2022-08-09T11:28:34.318Z,1.77
2022-08-09T11:31:36.449Z,1.63
2022-08-09T11:34:07.728Z,1.75
2022-08-09T11:36:42.122Z,0.70
2022-08-09T11:39:08.784Z,1.73
2022-08-09T11:41:40.332Z,3.13
2022-08-09T11:44:21.695Z,4.88
2022-08-09T11:47:00.372Z,3.47
2022-08-09T11:50:53.961Z,1.33
2022-08-09T11:54:00.379Z,3.15
2022-08-09T11:55:52.215Z,0.77
2022-08-09T11:58:30.366Z,1.70
2022-08-09T12:01:08.628Z,1.05
2022-08-09T12:03:56.181Z,0.90
2022-08-09T12:06:26.733Z,1.50
2022-08-09T12:09:01.492Z,2.87
2022-08-09T12:11:29.363Z,1.63
2022-08-09T12:14:23.524Z,1.33
2022-08-09T12:16:56.268Z,1.33
2022-08-09T12:19:31.100Z,0.52
2022-08-09T12:22:03.599Z,1.67
2022-08-09T12:24:31.666Z,2.20
2022-08-09T12:29:13.165Z,1.33
2022-08-09T12:30:00.120Z,0.70
2022-08-09T12:32:42.351Z,1.10
2022-08-09T12:35:13.298Z,3.57
2022-08-09T12:37:50.089Z,1.60
2022-08-09T12:40:19.260Z,1.10
2022-08-09T12:42:50.129Z,1.67
2022-08-09T12:45:33.643Z,1.23
2022-08-09T12:48:10.733Z,5.53
2022-08-09T12:50:47.232Z,0.70
2022-08-09T12:53:37.723Z,1.10
2022-08-09T12:56:13.964Z,2.08
2022-08-09T12:59:03.863Z,1.35
2022-08-09T13:01:30.926Z,0.60
2022-08-09T13:04:02.693Z,0.98
2022-08-09T13:06:34.325Z,0.73
2022-08-09T13:09:08.466Z,1.25
2022-08-09T13:11:42.335Z,1.10
2022-08-09T13:14:40.639Z,0.93
2022-08-09T13:17:21.837Z,0.70
2022-08-09T13:20:16.089Z,1.77
2022-08-09T13:23:06.021Z,1.02
2022-08-09T13:25:52.788Z,1.10
2022-08-09T13:28:34.117Z,1.27
2022-08-09T13:32:15.826Z,0.90
2022-08-09T13:33:54.810Z,1.02
2022-08-09T13:36:37.870Z,3.65
2022-08-09T13:42:47.951Z,1.40
2022-08-09T13:45:15.503Z,1.15
2022-08-09T13:47:49.617Z,1.67
2022-08-09T13:50:30.495Z,1.60
2022-08-09T13:52:58.689Z,1.00
2022-08-09T13:55:28.981Z,1.30
2022-08-09T13:57:58.483Z,2.17
2022-08-09T14:00:29.038Z,3.08
2022-08-09T14:03:16.679Z,1.15
2022-08-09T14:06:00.376Z,1.27
2022-08-09T14:08:31.941Z,1.53
2022-08-09T14:11:00.402Z,3.25
2022-08-09T14:14:22.486Z,1.23
2022-08-09T14:16:18.608Z,1.05
2022-08-09T14:18:50.067Z,1.65
2022-08-09T14:21:20.379Z,2.93
2022-08-09T14:23:55.641Z,1.40
2022-08-09T14:26:32.693Z,1.17
2022-08-09T14:29:07.893Z,2.03
2022-08-09T14:31:54.252Z,2.25
2022-08-09T14:34:31.609Z,2.70
2022-08-09T14:37:07.572Z,1.40
2022-08-09T14:39:47.373Z,2.70
2022-08-09T14:42:31.698Z,5.10
2022-08-09T14:46:40.249Z,1.67
2022-08-09T14:47:59.380Z,2.30
2022-08-09T14:50:34.809Z,0.93
2022-08-09T14:53:11.728Z,1.10
2022-08-09T14:55:49.843Z,1.77
2022-08-09T14:58:17.429Z,0.90
2022-08-09T15:00:48.251Z,0.70
2022-08-09T15:03:20.086Z,0.80
2022-08-09T15:05:52.645Z,0.82
2022-08-09T15:08:23.965Z,1.63
2022-08-09T15:11:00.392Z,1.17
2022-08-09T15:13:47.865Z,1.00
2022-08-09T15:16:15.284Z,1.02
2022-08-09T15:18:41.906Z,1.25
2022-08-09T15:21:55.040Z,0.93
2022-08-09T15:24:09.429Z,4.90
2022-08-09T15:26:45.492Z,1.33
2022-08-09T15:30:58.199Z,1.35
2022-08-09T15:32:00.415Z,1.50
2022-08-09T15:34:33.532Z,1.13
2022-08-09T15:37:04.330Z,1.10
2022-08-09T15:39:34.535Z,2.37
2022-08-09T15:42:02.074Z,1.70
2022-08-09T15:44:29.202Z,1.85
2022-08-09T15:46:59.460Z,1.20
2022-08-09T15:49:27.470Z,0.60
2022-08-09T15:52:03.389Z,0.80
2022-08-09T15:54:46.464Z,0.80
2022-08-09T15:57:35.391Z,0.90
2022-08-09T16:00:14.233Z,1.95
2022-08-09T16:02:43.176Z,2.45
2022-08-09T16:05:21.923Z,1.33
2022-08-09T16:07:50.477Z,0.70
2022-08-09T16:10:55.223Z,1.00
2022-08-09T16:13:20.783Z,0.82
2022-08-09T16:16:10.664Z,0.80
2022-08-09T16:18:44.918Z,0.80
2022-08-09T16:21:17.664Z,0.73
2022-08-09T16:23:54.790Z,1.85
2022-08-09T16:26:33.953Z,2.80
2022-08-09T16:29:12.593Z,0.80
2022-08-09T16:32:12.599Z,3.57
2022-08-09T16:34:29.451Z,0.73
2022-08-09T16:37:16.027Z,0.98
2022-08-09T16:39:54.563Z,0.98
2022-08-09T16:42:29.339Z,1.65
2022-08-09T16:44:56.186Z,0.70
2022-08-09T16:48:38.243Z,1.00
2022-08-09T16:50:29.368Z,1.15
2022-08-09T16:52:56.572Z,0.70
2022-08-09T16:55:23.832Z,0.80
2022-08-09T16:58:09.815Z,1.17
2022-08-09T17:00:42.661Z,2.40
2022-08-09T17:03:21.807Z,2.65
2022-08-09T17:06:08.356Z,0.57
2022-08-09T17:08:58.790Z,0.60
2022-08-09T17:11:40.987Z,1.07
2022-08-09T17:14:25.379Z,2.70
2022-08-09T17:16:59.654Z,0.98
2022-08-09T17:19:47.517Z,1.13
2022-08-09T17:22:16.657Z,2.15
2022-08-09T17:24:54.979Z,0.67
2022-08-09T17:27:22.400Z,0.60
2022-08-09T17:29:50.668Z,1.95
2022-08-09T17:32:20.287Z,0.70
2022-08-09T17:35:04.379Z,4.50
2022-08-09T17:38:11.770Z,0.57
2022-08-09T17:40:21.985Z,1.05
2022-08-09T17:42:59.608Z,0.93
2022-08-09T17:45:56.880Z,4.88
2022-08-09T17:48:17.240Z,1.58
2022-08-09T17:50:48.512Z,0.97
2022-08-09T17:53:22.809Z,0.73
2022-08-09T17:55:54.107Z,2.47
2022-08-09T17:58:26.972Z,2.50
2022-08-09T18:00:56.634Z,1.25
2022-08-09T18:03:25.438Z,0.97
2022-08-09T18:05:53.626Z,0.90
2022-08-09T18:08:22.229Z,1.50
2022-08-09T18:11:00.744Z,0.60
2022-08-09T18:13:43.000Z,1.00
2022-08-09T18:16:16.534Z,0.73
2022-08-09T18:18:49.087Z,2.95
2022-08-09T18:21:23.707Z,0.60
2022-08-09T18:24:12.021Z,1.15
2022-08-09T18:26:46.749Z,0.90
2022-08-09T18:30:41.262Z,1.73
2022-08-09T18:32:04.933Z,1.10
2022-08-09T18:34:35.480Z,2.30
2022-08-09T18:37:04.617Z,0.88
2022-08-09T18:39:39.637Z,0.60
2022-08-09T18:42:09.046Z,0.60
2022-08-09T18:44:36.216Z,2.95
2022-08-09T18:47:08.371Z,3.80
2022-08-09T18:49:46.451Z,1.00
2022-08-09T18:52:18.579Z,0.80
2022-08-09T18:54:53.388Z,1.87
2022-08-09T18:57:23.917Z,1.55
2022-08-09T19:00:07.864Z,2.25
2022-08-09T19:02:35.401Z,1.25
2022-08-09T19:05:20.575Z,4.20
2022-08-09T19:08:04.249Z,1.27
2022-08-09T19:10:39.240Z,3.78
2022-08-09T19:13:20.796Z,1.00
2022-08-09T19:15:51.546Z,2.35
2022-08-09T19:18:33.505Z,4.70
2022-08-09T19:21:09.117Z,1.27
2022-08-09T19:24:36.156Z,2.63
2022-08-09T19:26:29.465Z,1.90
2022-08-09T19:29:02.013Z,0.90
2022-08-09T19:31:45.814Z,2.17
2022-08-09T19:34:21.745Z,1.43
2022-08-09T19:36:52.318Z,2.65
2022-08-09T19:39:20.718Z,1.38
2022-08-09T19:42:06.886Z,2.30
2022-08-09T19:44:33.824Z,3.20
2022-08-09T19:47:01.698Z,0.70
2022-08-09T19:50:10.331Z,1.10
2022-08-09T19:52:15.535Z,3.72
2022-08-09T19:54:45.012Z,2.45
2022-08-09T19:57:11.639Z,2.35
2022-08-09T20:00:02.407Z,1.00
2022-08-09T20:04:12.610Z,1.25
2022-08-09T20:05:16.688Z,5.85
2022-08-09T20:08:00.230Z,1.83
2022-08-09T20:10:36.982Z,0.73
2022-08-09T20:13:09.426Z,2.93
2022-08-09T20:16:37.028Z,0.95
2022-08-09T20:18:27.969Z,3.03
2022-08-09T20:20:55.775Z,2.85
2022-08-09T20:23:23.072Z,4.50
2022-08-09T20:25:53.628Z,1.13
2022-08-09T20:28:34.497Z,2.45
2022-08-09T20:31:15.346Z,2.35
2022-08-09T20:33:44.003Z,0.55
2022-08-09T20:36:12.186Z,0.80
2022-08-09T20:39:24.547Z,1.10
2022-08-09T20:41:32.209Z,2.70
2022-08-09T20:44:09.844Z,3.45
2022-08-09T20:46:44.159Z,1.10
2022-08-09T20:49:18.074Z,1.10
2022-08-09T20:51:50.462Z,0.70
2022-08-09T20:54:18.108Z,3.05
2022-08-09T20:56:49.899Z,1.80
2022-08-09T20:59:49.988Z,3.85
2022-08-09T21:02:11.186Z,2.10
2022-08-09T21:05:57.854Z,1.30
2022-08-09T21:07:40.424Z,3.28
2022-08-09T21:10:08.211Z,0.95
2022-08-09T21:12:37.130Z,1.30
2022-08-09T21:15:04.741Z,0.93
2022-08-09T21:18:29.754Z,1.30
2022-08-09T21:20:25.772Z,1.00
2022-08-09T21:22:54.111Z,3.25
2022-08-09T21:25:43.954Z,2.55
2022-08-09T21:28:34.491Z,0.77
2022-08-09T21:31:13.531Z,0.50
2022-08-09T21:33:45.623Z,1.63
2022-08-09T21:36:18.304Z,0.80
2022-08-09T21:38:51.116Z,1.42
2022-08-09T21:41:25.597Z,0.80
2022-08-09T21:44:12.052Z,1.37
2022-08-09T21:46:42.305Z,1.05
2022-08-09T21:49:09.820Z,0.70
2022-08-09T21:51:43.570Z,1.00
2022-08-09T21:54:12.169Z,0.50
2022-08-09T21:56:43.427Z,0.97
2022-08-09T21:59:20.634Z,0.73
2022-08-09T22:02:01.246Z,0.80
2022-08-09T22:04:56.727Z,4.03
2022-08-09T22:07:23.471Z,2.45
2022-08-09T22:10:05.387Z,0.80
2022-08-09T22:12:32.446Z,1.85
2022-08-09T22:14:59.385Z,1.15
2022-08-09T22:17:28.096Z,0.75
2022-08-09T22:20:00.584Z,1.55
2022-08-09T22:22:29.372Z,0.70
2022-08-09T22:26:04.167Z,0.65
2022-08-09T22:27:42.665Z,1.52
2022-08-09T22:30:10.555Z,0.68
2022-08-09T22:32:37.342Z,3.50
2022-08-09T22:35:06.568Z,0.70
2022-08-09T22:37:35.625Z,1.40
2022-08-09T22:40:08.782Z,1.80
2022-08-09T22:42:35.439Z,1.77
2022-08-09T22:48:11.471Z,4.60
2022-08-09T22:48:14.556Z,0.83
2022-08-09T22:50:35.078Z,3.30
2022-08-09T22:53:03.378Z,2.05
2022-08-09T22:56:07.204Z,1.00
2022-08-09T22:58:32.121Z,1.35
2022-08-09T23:01:00.621Z,0.90
2022-08-09T23:03:31.319Z,1.45
2022-08-09T23:06:34.986Z,0.70
2022-08-09T23:09:03.082Z,0.90
2022-08-09T23:11:29.652Z,3.30
2022-08-09T23:13:56.363Z,0.83
2022-08-09T23:16:23.335Z,0.70
2022-08-09T23:18:50.089Z,4.60
2022-08-09T23:21:24.639Z,2.35
2022-08-09T23:24:06.256Z,1.10
2022-08-09T23:26:35.971Z,1.27
2022-08-09T23:29:05.352Z,2.95
2022-08-09T23:31:32.316Z,0.90
2022-08-09T23:33:58.881Z,0.60
2022-08-09T23:36:25.584Z,1.00
2022-08-09T23:38:54.399Z,4.00
2022-08-09T23:41:28.035Z,1.80
2022-08-09T23:43:57.912Z,1.70
2022-08-09T23:46:24.449Z,2.30
2022-08-09T23:48:50.969Z,1.23
2022-08-09T23:51:17.796Z,0.90
2022-08-09T23:53:44.427Z,0.73
2022-08-09T23:56:10.995Z,3.40
2022-08-09T23:58:37.562Z,1.00
